Colorado Star — 9HA2189 — position and weather

sailwx.info

Track history (hours):
 
Tides and Currents Weather Stations Pressure Air Temp Water Temp Dewpoint Dewpoint Depression Visibility Wind Speed Wind Dir Waves Ship Positions

Colorado Star

Last reported at 2018-Feb-19 11:30 UTC. Time now 2018-Feb-19 11:41 UTC.
Position N 54°16' E 009°38'.

Length 128 m; draft 6.4 m.

Type: Ship. MMSI: 248127000.

Date/timePositionNaut miles runAvg speedWind from/ knotsBaromVisibWave heightAir tempDewpointWater temp
2018-Feb-19 11:30N 54°16' E 009°38'0 0.5
2018-Feb-19 11:00N 54°16' E 009°38'2 3.4
2018-Feb-19 10:30N 54°14' E 009°37'4 7.8
2018-Feb-19 10:00N 54°12' E 009°32'4 8.8
2018-Feb-19 09:30N 54°10' E 009°25'3 6.7
2018-Feb-19 09:00N 54°08' E 009°20'4 8.5
2018-Feb-19 08:30N 54°04' E 009°19'1 2.7
2018-Feb-19 08:00N 54°03' E 009°18'2 3.0
2018-Feb-19 07:30N 54°01' E 009°18'4 8.1
2018-Feb-19 07:00N 53°58' E 009°15'1 2.2
2018-Feb-19 06:30N 53°57' E 009°14'0 0.3
2018-Feb-19 06:00N 53°57' E 009°14'3 6.2
2018-Feb-19 05:30N 53°54' E 009°10'1 2.2
2018-Feb-19 05:00N 53°54' E 009°09'0 0.8
2018-Feb-19 04:30N 53°53' E 009°08'2 3.6
2018-Feb-19 04:00N 53°53' E 009°05'0 0.4
2018-Feb-19 03:30N 53°53' E 009°05'4 8.2
2018-Feb-19 03:00N 53°51' E 008°59'713.5
2018-Feb-19 02:30N 53°50' E 008°47'613.1
2018-Feb-19 02:00N 53°55' E 008°40'712.5
2018-Feb-19 01:28N 53°58' E 008°30'612.8
2018-Feb-19 01:00N 53°59' E 008°20'611.3
2018-Feb-19 00:30N 53°60' E 008°10'713.1
2018-Feb-19 00:00N 53°58' E 007°59'610.6
2018-Feb-18 23:28N 53°57' E 007°50'8514.0
2018-Feb-18 17:23N 53°35' E 005°31'512.4
2018-Feb-18 17:00N 53°33' E 005°24'612.2
2018-Feb-18 16:31N 53°31' E 005°14'611.9
2018-Feb-18 16:01N 53°29' E 005°05'612.1
2018-Feb-18 15:30N 53°27' E 004°56'612.0
2018-Feb-18 15:00N 53°24' E 004°46'1211.7
2018-Feb-18 14:01N 53°14' E 004°36'012.5
2018-Feb-18 14:00N 53°14' E 004°36'612.4
2018-Feb-18 13:30N 53°09' E 004°30'612.3
2018-Feb-18 13:01N 53°04' E 004°26'612.0
2018-Feb-18 12:30N 52°58' E 004°21'612.5
2018-Feb-18 12:00N 52°53' E 004°17'611.8
2018-Feb-18 11:31N 52°47' E 004°14'612.1
2018-Feb-18 11:01N 52°41' E 004°16'612.1
2018-Feb-18 10:31N 52°36' E 004°21'612.4
2018-Feb-18 10:00N 52°31' E 004°27'510.5
2018-Feb-18 09:31N 52°28' E 004°34'1 2.7
2018-Feb-18 09:01N 52°28' E 004°36'1 1.5
2018-Feb-18 08:31N 52°28' E 004°38'2 3.3
2018-Feb-18 08:00N 52°27' E 004°40'3 6.7
2018-Feb-18 07:31N 52°26' E 004°45'2 3.9
2018-Feb-18 07:00N 52°24' E 004°47'0 0.0
2018-Feb-18 06:21N 52°24' E 004°47'0 0.0
2018-Feb-18 05:57N 52°24' E 004°47'0 0.0
2018-Feb-18 05:27N 52°24' E 004°47'0 0.0
2018-Feb-18 05:00N 52°24' E 004°47'0 0.0
2018-Feb-18 04:30N 52°24' E 004°47'0 0.0
2018-Feb-18 03:57N 52°24' E 004°47'0 0.0
2018-Feb-18 03:27N 52°24' E 004°47'0 0.0
2018-Feb-18 02:57N 52°24' E 004°47'0 0.0
2018-Feb-18 02:24N 52°24' E 004°47'0 0.0
2018-Feb-18 02:00N 52°24' E 004°47'0 0.0
2018-Feb-18 01:27N 52°24' E 004°47'0 0.0
2018-Feb-18 00:57N 52°24' E 004°47'0 0.0
2018-Feb-18 00:30N 52°24' E 004°47'0 0.0
2018-Feb-17 23:54N 52°24' E 004°47'0 0.0
2018-Feb-17 23:30N 52°24' E 004°47'0 0.0
2018-Feb-17 22:42N 52°24' E 004°47'0 0.0
2018-Feb-17 22:15N 52°24' E 004°47'0 0.0
2018-Feb-17 22:00N 52°24' E 004°47'0 0.0
2018-Feb-17 21:27N 52°24' E 004°47'0 0.0
2018-Feb-17 20:54N 52°24' E 004°47'0 0.0
2018-Feb-17 20:30N 52°24' E 004°47'0 0.0
2018-Feb-17 19:54N 52°24' E 004°47'0 0.0
2018-Feb-17 19:30N 52°24' E 004°47'0 0.0
2018-Feb-17 18:45N 52°24' E 004°47'0 0.0
2018-Feb-17 18:15N 52°24' E 004°47'0 0.0
2018-Feb-17 17:54N 52°24' E 004°47'0 0.0
2018-Feb-17 17:27N 52°24' E 004°47'0 0.0
2018-Feb-17 17:00N 52°24' E 004°47'0 0.0
2018-Feb-17 16:27N 52°24' E 004°47'0 0.0
2018-Feb-17 16:00N 52°24' E 004°47'0 0.0
2018-Feb-17 15:27N 52°24' E 004°47'0 0.0
2018-Feb-17 15:00N 52°24' E 004°47'0 0.0
2018-Feb-17 14:30N 52°24' E 004°47'0 0.0
2018-Feb-17 13:57N 52°24' E 004°47'0 0.0
2018-Feb-17 13:30N 52°24' E 004°47'0 0.0
2018-Feb-17 12:57N 52°24' E 004°47'0 0.0
2018-Feb-17 12:30N 52°24' E 004°47'0 0.0
2018-Feb-17 11:57N 52°24' E 004°47'0 0.0
2018-Feb-17 11:30N 52°24' E 004°47'0 0.1
2018-Feb-17 11:00N 52°24' E 004°47'0 0.1
2018-Feb-17 10:30N 52°24' E 004°47'0 0.0
2018-Feb-17 10:00N 52°24' E 004°47'0 0.0
2018-Feb-17 09:30N 52°24' E 004°47'0 0.0
2018-Feb-17 08:57N 52°24' E 004°47'0 0.0
2018-Feb-17 08:30N 52°24' E 004°47'0 0.0
2018-Feb-17 08:00N 52°24' E 004°47'0 0.0
2018-Feb-17 07:30N 52°24' E 004°47'0 0.0
2018-Feb-17 06:57N 52°24' E 004°47'0 0.0
2018-Feb-17 06:27N 52°24' E 004°47'0 0.0
2018-Feb-17 06:00N 52°24' E 004°47'1 2.5
2018-Feb-17 05:30N 52°25' E 004°46'4 7.8
2018-Feb-17 05:00N 52°27' E 004°41'3 5.4
2018-Feb-17 04:31N 52°28' E 004°36'0 0.3
2018-Feb-17 04:01N 52°28' E 004°36'3 5.9
2018-Feb-17 03:30N 52°28' E 004°31'5 9.6
2018-Feb-17 03:00N 52°28' E 004°23'4 8.2
2018-Feb-17 02:30N 52°28' E 004°17'5 9.4
2018-Feb-17 02:00N 52°27' E 004°09'2 4.6
2018-Feb-17 01:28N 52°26' E 004°05'0 0.1
2018-Feb-17 00:58N 52°26' E 004°05'0 0.0
2018-Feb-17 00:28N 52°26' E 004°05'0 0.0
2018-Feb-16 23:58N 52°26' E 004°05'0 0.0
2018-Feb-16 23:28N 52°26' E 004°05'0 0.0
2018-Feb-16 22:58N 52°26' E 004°05'0 0.0
2018-Feb-16 22:28N 52°26' E 004°05'0 0.0
2018-Feb-16 21:58N 52°26' E 004°05'0 0.0
2018-Feb-16 21:28N 52°26' E 004°05'0 0.0
2018-Feb-16 20:58N 52°26' E 004°05'0 0.0
2018-Feb-16 20:25N 52°26' E 004°05'0 0.1
2018-Feb-16 19:58N 52°26' E 004°06'0 0.1
2018-Feb-16 19:28N 52°26' E 004°06'0 0.1
2018-Feb-16 18:55N 52°26' E 004°06'0 0.1
2018-Feb-16 18:25N 52°26' E 004°06'0 0.0
2018-Feb-16 17:58N 52°26' E 004°06'0 0.0
2018-Feb-16 17:25N 52°26' E 004°06'0 0.0
2018-Feb-16 16:58N 52°26' E 004°06'0 0.0
2018-Feb-16 16:25N 52°26' E 004°06'0 0.0
2018-Feb-16 15:55N 52°26' E 004°06'0 0.0
2018-Feb-16 15:28N 52°26' E 004°06'0 0.1
2018-Feb-16 14:58N 52°26' E 004°06'0 0.2
2018-Feb-16 14:28N 52°26' E 004°06'0 0.1
2018-Feb-16 13:55N 52°26' E 004°06'0 0.1
2018-Feb-16 13:25N 52°26' E 004°06'0 0.1
2018-Feb-16 12:58N 52°26' E 004°06'0 0.1
2018-Feb-16 12:28N 52°26' E 004°06'0 0.1
2018-Feb-16 11:55N 52°26' E 004°06'0 0.0
2018-Feb-16 11:28N 52°26' E 004°05'0 0.0
2018-Feb-16 10:58N 52°26' E 004°05'0 0.0
2018-Feb-16 10:28N 52°26' E 004°05'0 0.0
2018-Feb-16 09:58N 52°26' E 004°05'0 0.0
2018-Feb-16 09:28N 52°26' E 004°05'0 0.0
2018-Feb-16 08:58N 52°26' E 004°05'0 0.1
2018-Feb-16 08:28N 52°26' E 004°05'0 0.1
2018-Feb-16 07:58N 52°26' E 004°06'0 0.1
2018-Feb-16 07:28N 52°26' E 004°06'0 0.1
2018-Feb-16 06:58N 52°26' E 004°06'0 0.0
2018-Feb-16 06:25N 52°26' E 004°06'0 0.1
2018-Feb-16 05:58N 52°26' E 004°06'0 0.1
2018-Feb-16 05:28N 52°26' E 004°06'0 0.0
2018-Feb-16 04:55N 52°26' E 004°06'0 0.0
2018-Feb-16 04:28N 52°26' E 004°06'0 0.0
2018-Feb-16 03:49N 52°26' E 004°06'0 0.0
2018-Feb-16 03:28N 52°26' E 004°06'0 0.0
2018-Feb-16 02:55N 52°26' E 004°06'0 0.0
2018-Feb-16 02:25N 52°26' E 004°06'0 0.1
2018-Feb-16 01:58N 52°26' E 004°06'0 0.0
2018-Feb-16 01:28N 52°26' E 004°06'0 0.0
2018-Feb-16 00:58N 52°26' E 004°06'0 0.0
2018-Feb-16 00:25N 52°26' E 004°06'0 0.1
2018-Feb-15 23:58N 52°26' E 004°06'0 0.1
2018-Feb-15 23:25N 52°26' E 004°06'0 0.0
2018-Feb-15 22:58N 52°26' E 004°06'0 0.1
2018-Feb-15 22:28N 52°26' E 004°05'0 0.1
2018-Feb-15 21:58N 52°26' E 004°05'0 0.0
2018-Feb-15 21:25N 52°26' E 004°05'0 0.0
2018-Feb-15 20:58N 52°26' E 004°05'0 0.0
2018-Feb-15 20:28N 52°26' E 004°05'0 0.1
2018-Feb-15 19:58N 52°26' E 004°05'0 0.2
2018-Feb-15 19:28N 52°26' E 004°06'0 0.1
2018-Feb-15 18:58N 52°26' E 004°06'0 0.0
2018-Feb-15 18:28N 52°26' E 004°06'0 0.0
2018-Feb-15 17:58N 52°26' E 004°06'0 0.0
2018-Feb-15 17:25N 52°26' E 004°06'0 0.0
2018-Feb-15 16:58N 52°26' E 004°06'0 0.0
2018-Feb-15 16:28N 52°26' E 004°06'0 0.0
2018-Feb-15 15:58N 52°26' E 004°06'0 0.0
2018-Feb-15 15:28N 52°26' E 004°06'0 0.0
2018-Feb-15 14:58N 52°26' E 004°06'0 0.0
2018-Feb-15 14:28N 52°26' E 004°06'0 0.0
2018-Feb-15 13:55N 52°26' E 004°06'0 0.0
2018-Feb-15 13:25N 52°26' E 004°06'0 0.0
2018-Feb-15 12:10N 52°26' E 004°06'0 0.0
2018-Feb-15 11:58N 52°26' E 004°06'0 0.0
2018-Feb-15 11:28N 52°26' E 004°06'0 0.0
2018-Feb-15 10:55N 52°26' E 004°06'0 0.0
2018-Feb-15 10:28N 52°26' E 004°06'0 0.2
2018-Feb-15 09:58N 52°26' E 004°05'0 0.2
2018-Feb-15 09:30N 52°26' E 004°05'3 5.6
2018-Feb-15 09:00N 52°24' E 004°03'2 4.9
2018-Feb-15 08:30N 52°22' E 004°00'0 0.1
2018-Feb-15 08:00N 52°22' E 004°00'0 0.3
2018-Feb-15 07:30N 52°22' E 003°60'0 0.6
2018-Feb-15 07:00N 52°22' E 003°60'0 0.8
2018-Feb-15 06:30N 52°22' E 003°59'1 1.1
2018-Feb-15 06:00N 52°21' E 003°59'1 1.5
2018-Feb-15 05:30N 52°20' E 003°59'1 1.8
2018-Feb-15 05:00N 52°20' E 003°58'1 2.0
2018-Feb-15 04:31N 52°19' E 003°58'1 2.1
2018-Feb-15 04:00N 52°18' E 003°58'1 2.5
2018-Feb-15 03:30N 52°19' E 003°58'2 3.4
2018-Feb-15 03:00N 52°20' E 003°58'1 3.0
2018-Feb-15 02:31N 52°22' E 003°58'1 2.6
2018-Feb-15 02:00N 52°23' E 003°58'0 0.7
2018-Feb-15 01:30N 52°23' E 003°57'1 2.6
2018-Feb-15 01:00N 52°22' E 003°57'1 2.4
2018-Feb-15 00:30N 52°21' E 003°56'1 2.0
2018-Feb-15 00:01N 52°20' E 003°56'1 1.6
2018-Feb-14 23:31N 52°19' E 003°56'1 1.2
2018-Feb-14 23:01N 52°18' E 003°57'1 1.1
2018-Feb-14 22:30N 52°18' E 003°57'1 1.1
2018-Feb-14 22:00N 52°18' E 003°58'1 1.2
2018-Feb-14 21:30N 52°17' E 003°58'2 3.3
2018-Feb-14 21:00N 52°18' E 003°56'2 3.8
2018-Feb-14 20:30N 52°19' E 003°53'1 1.1
2018-Feb-14 20:00N 52°19' E 003°54'1 1.0
2018-Feb-14 19:30N 52°18' E 003°55'1 1.1
2018-Feb-14 19:00N 52°18' E 003°55'2 4.5
2018-Feb-14 18:30N 52°20' E 003°57'3 5.6
2018-Feb-14 18:00N 52°23' E 003°59'2 5.0
2018-Feb-14 17:30N 52°25' E 004°01'1 1.5
2018-Feb-14 17:00N 52°24' E 004°01'1 1.9
2018-Feb-14 16:30N 52°23' E 004°00'1 2.1
2018-Feb-14 15:58N 52°22' E 003°59'1 2.3
2018-Feb-14 15:28N 52°21' E 003°58'1 2.5
2018-Feb-14 15:00N 52°20' E 003°58'1 2.5
2018-Feb-14 14:30N 52°19' E 003°57'1 2.1
2018-Feb-14 14:00N 52°18' E 003°56'2 3.8
2018-Feb-14 13:30N 52°20' E 003°57'2 3.9
2018-Feb-14 13:00N 52°21' E 003°59'2 4.2
2018-Feb-14 12:30N 52°23' E 003°60'2 3.9
2018-Feb-14 12:00N 52°25' E 004°00'0 0.2
2018-Feb-14 11:21N 52°25' E 004°00'0 0.1
2018-Feb-14 11:00N 52°25' E 004°00'0 0.1
2018-Feb-14 10:30N 52°25' E 004°00'0 0.1
2018-Feb-14 09:57N 52°25' E 003°60'0 0.1
2018-Feb-14 09:30N 52°25' E 003°60'0 0.0
2018-Feb-14 09:00N 52°25' E 003°60'0 0.0
2018-Feb-14 08:30N 52°25' E 003°60'0 0.0
2018-Feb-14 07:51N 52°25' E 003°60'0 0.2
2018-Feb-14 07:30N 52°25' E 004°00'0 0.1
2018-Feb-14 07:00N 52°25' E 004°00'0 0.0
2018-Feb-14 06:30N 52°25' E 004°00'0 0.0
2018-Feb-14 06:00N 52°25' E 004°00'0 0.0
2018-Feb-14 05:30N 52°25' E 004°00'0 0.0
2018-Feb-14 05:00N 52°25' E 004°00'0 0.0
2018-Feb-14 04:30N 52°25' E 004°00'0 0.0
2018-Feb-14 04:00N 52°25' E 004°00'0 0.0
2018-Feb-14 03:30N 52°25' E 004°00'0 0.0
2018-Feb-14 03:00N 52°25' E 004°00'0 0.0
2018-Feb-14 02:30N 52°25' E 004°00'0 0.0
2018-Feb-14 01:57N 52°25' E 004°00'0 0.0
2018-Feb-14 01:27N 52°25' E 004°00'0 0.0
2018-Feb-14 00:48N 52°25' E 004°00'0 0.0
2018-Feb-14 00:30N 52°25' E 004°00'0 0.0
2018-Feb-14 00:00N 52°25' E 004°00'0 0.0
2018-Feb-13 23:30N 52°25' E 004°00'0 0.0
2018-Feb-13 23:00N 52°25' E 004°00'0 0.1
2018-Feb-13 22:30N 52°25' E 003°60'0 0.1
2018-Feb-13 21:57N 52°25' E 003°60'0 0.1
2018-Feb-13 21:30N 52°25' E 003°60'0 0.0
2018-Feb-13 21:00N 52°25' E 003°60'0 0.0
2018-Feb-13 20:30N 52°25' E 004°00'0 0.1
2018-Feb-13 20:00N 52°25' E 003°60'0 0.1
2018-Feb-13 19:30N 52°25' E 003°60'0 0.2
2018-Feb-13 19:00N 52°25' E 004°00'0 0.1
2018-Feb-13 18:24N 52°25' E 004°00'0 0.1
2018-Feb-13 18:00N 52°25' E 004°00'0 0.0
2018-Feb-13 17:30N 52°25' E 004°00'0 0.0
2018-Feb-13 17:00N 52°25' E 004°00'0 0.0
2018-Feb-13 16:30N 52°25' E 004°00'0 0.0
2018-Feb-13 16:00N 52°25' E 004°00'0 0.0
2018-Feb-13 15:30N 52°25' E 004°00'0 0.0
2018-Feb-13 15:00N 52°25' E 004°00'0 0.0
2018-Feb-13 14:30N 52°25' E 004°00'0 0.0
2018-Feb-13 14:00N 52°25' E 004°00'0 0.0
2018-Feb-13 13:30N 52°25' E 004°00'0 0.0
2018-Feb-13 13:00N 52°25' E 004°00'0 0.0
2018-Feb-13 12:30N 52°25' E 004°00'0 0.0
2018-Feb-13 12:00N 52°25' E 004°00'0 0.0
2018-Feb-13 11:30N 52°25' E 004°00'0 0.0
2018-Feb-13 11:00N 52°25' E 004°00'0 0.0
2018-Feb-13 10:30N 52°25' E 004°00'0 0.0
2018-Feb-13 09:57N 52°25' E 004°00'0 0.0
2018-Feb-13 09:30N 52°25' E 004°00'0 0.1
2018-Feb-13 09:00N 52°25' E 004°00'0 0.1
2018-Feb-13 08:30N 52°25' E 004°00'0 0.0
2018-Feb-13 08:00N 52°25' E 004°00'0 0.1
2018-Feb-13 07:30N 52°25' E 004°00'0 0.0
2018-Feb-13 07:00N 52°25' E 004°00'0 0.0
2018-Feb-13 06:27N 52°25' E 004°00'0 0.0
2018-Feb-13 06:00N 52°25' E 004°00'0 0.0
2018-Feb-13 05:30N 52°25' E 004°00'0 0.0
2018-Feb-13 05:00N 52°25' E 004°00'0 0.0
2018-Feb-13 04:27N 52°25' E 004°00'0 0.0
2018-Feb-13 04:00N 52°25' E 004°00'0 0.0
2018-Feb-13 03:30N 52°25' E 004°00'0 0.0
2018-Feb-13 03:00N 52°25' E 004°00'0 0.0
2018-Feb-13 02:30N 52°25' E 004°00'0 0.0
2018-Feb-13 02:00N 52°25' E 004°00'0 0.0
2018-Feb-13 01:30N 52°25' E 004°00'0 0.0
2018-Feb-13 00:51N 52°25' E 004°00'0 0.1
2018-Feb-13 00:30N 52°25' E 004°00'0 0.1
2018-Feb-13 00:00N 52°25' E 004°00'0 0.1
2018-Feb-12 23:27N 52°25' E 004°00'0 0.0
2018-Feb-12 22:54N 52°25' E 004°00'0 0.1
2018-Feb-12 22:27N 52°25' E 004°00'0 0.1
2018-Feb-12 21:51N 52°25' E 004°00'0 0.1
2018-Feb-12 21:30N 52°25' E 004°00'0 0.1
2018-Feb-12 21:00N 52°25' E 004°00'0 0.1
2018-Feb-12 20:27N 52°25' E 004°00'0 0.1
2018-Feb-12 20:00N 52°25' E 004°00'0 0.0
2018-Feb-12 19:30N 52°25' E 004°00'0 0.0
2018-Feb-12 19:00N 52°25' E 004°00'0 0.1
2018-Feb-12 18:27N 52°25' E 004°00'0 0.1
2018-Feb-12 18:00N 52°25' E 004°00'0 0.0
2018-Feb-12 16:12N 52°25' E 004°00'0 0.0
2018-Feb-12 15:15N 52°25' E 004°00'0 0.3
2018-Feb-12 15:00N 52°25' E 004°00'0 0.0
2018-Feb-12 14:30N 52°25' E 004°00'0 0.0
2018-Feb-12 13:54N 52°25' E 004°00'0 0.0
2018-Feb-12 13:30N 52°25' E 004°00'0 0.0
2018-Feb-12 13:00N 52°25' E 004°00'0 0.0
2018-Feb-12 12:27N 52°25' E 004°00'0 0.1
2018-Feb-12 11:54N 52°25' E 004°00'0 0.1
2018-Feb-12 10:33N 52°25' E 004°00'0 0.2
2018-Feb-12 10:30N 52°25' E 004°00'0 0.0
2018-Feb-12 10:00N 52°25' E 004°00'0 0.0
2018-Feb-12 09:24N 52°25' E 004°00'0 0.0
2018-Feb-12 09:00N 52°25' E 004°00'0 0.6
2018-Feb-12 08:30N 52°25' E 004°00'2 3.7
2018-Feb-12 08:00N 52°23' E 004°00'2 3.9
2018-Feb-12 07:30N 52°21' E 003°59'2 4.2
2018-Feb-12 07:00N 52°19' E 003°59'3 5.1
2018-Feb-12 06:30N 52°17' E 003°60'0 0.9
2018-Feb-12 06:00N 52°17' E 004°01'1 1.6
2018-Feb-12 05:30N 52°17' E 004°00'1 1.6
2018-Feb-12 05:00N 52°18' E 003°60'1 1.4
2018-Feb-12 04:30N 52°19' E 003°59'1 1.3
2018-Feb-12 04:00N 52°19' E 003°58'1 1.2
2018-Feb-12 03:30N 52°19' E 003°58'1 1.1
2018-Feb-12 03:00N 52°20' E 003°57'2 3.6
2018-Feb-12 02:30N 52°20' E 003°60'2 4.0
2018-Feb-12 02:00N 52°20' E 004°03'2 4.0
2018-Feb-12 01:30N 52°20' E 004°06'2 3.7
2018-Feb-12 01:00N 52°20' E 004°09'0 0.9
2018-Feb-12 00:30N 52°20' E 004°09'1 1.7
2018-Feb-12 00:00N 52°20' E 004°08'1 1.7
2018-Feb-11 23:30N 52°20' E 004°06'1 1.6
2018-Feb-11 23:01N 52°19' E 004°05'1 1.5
2018-Feb-11 22:30N 52°19' E 004°04'1 1.4
2018-Feb-11 22:00N 52°20' E 004°03'1 1.4
2018-Feb-11 21:30N 52°20' E 004°02'1 1.5
2018-Feb-11 21:00N 52°20' E 004°01'1 1.4
2018-Feb-11 20:30N 52°21' E 003°60'1 1.4
2018-Feb-11 20:00N 52°21' E 003°59'1 1.4
2018-Feb-11 19:30N 52°22' E 003°58'1 1.4
2018-Feb-11 19:00N 52°22' E 003°58'1 1.4
2018-Feb-11 18:30N 52°23' E 003°57'1 1.4
2018-Feb-11 18:00N 52°23' E 003°58'2 4.8
2018-Feb-11 17:30N 52°21' E 004°00'4 8.2
2018-Feb-11 17:00N 52°18' E 004°05'0 0.8
2018-Feb-11 16:30N 52°19' E 004°05'1 1.3
2018-Feb-11 16:00N 52°19' E 004°04'1 1.2
2018-Feb-11 15:30N 52°20' E 004°03'1 1.3
2018-Feb-11 15:00N 52°20' E 004°02'1 1.4
2018-Feb-11 14:30N 52°20' E 004°01'1 1.6
2018-Feb-11 14:00N 52°20' E 003°60'1 1.7
2018-Feb-11 13:30N 52°19' E 003°58'0 0.5
2018-Feb-11 13:00N 52°19' E 003°58'2 2.6
2018-Feb-11 12:24N 52°20' E 004°00'1 2.4
2018-Feb-11 12:00N 52°20' E 004°02'1 2.0
2018-Feb-11 11:30N 52°20' E 004°03'1 2.0
2018-Feb-11 11:00N 52°21' E 004°05'1 2.1
2018-Feb-11 10:30N 52°21' E 004°06'1 1.3
2018-Feb-11 10:00N 52°22' E 004°07'1 2.1
2018-Feb-11 09:30N 52°22' E 004°05'1 1.9
2018-Feb-11 09:00N 52°21' E 004°04'1 1.8
2018-Feb-11 08:30N 52°21' E 004°02'1 1.6
2018-Feb-11 08:00N 52°21' E 004°01'1 1.5
2018-Feb-11 07:30N 52°21' E 003°60'1 1.3
2018-Feb-11 07:00N 52°21' E 003°59'0 0.8
2018-Feb-11 06:30N 52°21' E 003°59'3 5.4
2018-Feb-11 06:00N 52°22' E 004°03'0 1.0
2018-Feb-11 05:30N 52°23' E 004°03'0 0.9
2018-Feb-11 05:00N 52°23' E 004°03'1 1.1
2018-Feb-11 04:30N 52°22' E 004°02'1 1.3
2018-Feb-11 04:01N 52°22' E 004°01'1 1.5
2018-Feb-11 03:30N 52°21' E 004°00'1 1.6
2018-Feb-11 03:00N 52°21' E 003°60'0 0.7
2018-Feb-11 02:30N 52°21' E 004°00'2 3.2
2018-Feb-11 02:00N 52°22' E 004°02'1 2.0
2018-Feb-11 01:30N 52°23' E 004°02'1 2.4
2018-Feb-11 01:00N 52°24' E 004°03'1 2.2
2018-Feb-11 00:30N 52°25' E 004°04'1 1.6
2018-Feb-11 00:00N 52°25' E 004°03'1 2.6
2018-Feb-10 23:30N 52°23' E 004°02'1 2.6
2018-Feb-10 23:00N 52°22' E 004°01'1 2.5
2018-Feb-10 22:30N 52°21' E 004°00'1 2.5
2018-Feb-10 22:00N 52°20' E 003°59'1 2.2
2018-Feb-10 21:30N 52°19' E 003°59'2 3.0
2018-Feb-10 21:00N 52°20' E 003°59'2 3.5
2018-Feb-10 20:30N 52°22' E 003°60'2 3.6
2018-Feb-10 20:00N 52°24' E 003°60'0 1.0
2018-Feb-10 19:31N 52°24' E 003°59'1 1.1
2018-Feb-10 19:00N 52°23' E 003°59'0 0.9
2018-Feb-10 18:30N 52°23' E 003°59'0 0.9
2018-Feb-10 18:00N 52°22' E 003°58'0 0.8
2018-Feb-10 17:30N 52°22' E 003°58'0 0.7
2018-Feb-10 17:00N 52°22' E 003°58'0 0.7
2018-Feb-10 16:30N 52°21' E 003°58'0 0.7
2018-Feb-10 16:00N 52°21' E 003°58'0 0.7
2018-Feb-10 15:30N 52°21' E 003°57'0 0.8
2018-Feb-10 15:00N 52°20' E 003°57'0 0.9
2018-Feb-10 14:30N 52°20' E 003°57'1 1.9
2018-Feb-10 14:00N 52°21' E 003°58'3 5.8
2018-Feb-10 13:30N 52°23' E 003°60'3 5.7
2018-Feb-10 13:00N 52°26' E 004°02'1 2.1
2018-Feb-10 12:28N 52°27' E 004°03'0 0.1
2018-Feb-10 11:58N 52°27' E 004°03'0 0.0
2018-Feb-10 11:25N 52°27' E 004°03'0 0.0
2018-Feb-10 10:58N 52°27' E 004°03'0 0.0
2018-Feb-10 10:28N 52°27' E 004°03'0 0.0
2018-Feb-10 09:58N 52°27' E 004°03'0 0.1
2018-Feb-10 09:28N 52°27' E 004°03'0 0.1
2018-Feb-10 08:49N 52°27' E 004°03'0 0.1
2018-Feb-10 08:25N 52°26' E 004°03'0 0.0
2018-Feb-10 07:55N 52°26' E 004°03'0 0.0
2018-Feb-10 07:28N 52°26' E 004°03'0 0.1
2018-Feb-10 06:58N 52°26' E 004°03'0 0.0
2018-Feb-10 06:28N 52°26' E 004°03'0 0.0
2018-Feb-10 05:55N 52°26' E 004°03'0 0.0
2018-Feb-10 05:28N 52°26' E 004°03'0 0.1
2018-Feb-10 04:58N 52°26' E 004°03'0 0.0
2018-Feb-10 04:28N 52°26' E 004°03'0 0.0
2018-Feb-10 03:58N 52°26' E 004°03'0 0.1
2018-Feb-10 03:28N 52°27' E 004°03'0 0.1
2018-Feb-10 02:40N 52°27' E 004°03'0 0.0
2018-Feb-10 02:25N 52°27' E 004°03'0 0.1
2018-Feb-10 01:58N 52°27' E 004°03'0 0.1
2018-Feb-10 01:25N 52°27' E 004°03'0 0.0
2018-Feb-10 00:52N 52°27' E 004°03'0 0.0
2018-Feb-10 00:25N 52°27' E 004°03'0 0.0
2018-Feb-09 23:55N 52°27' E 004°03'0 0.0
2018-Feb-09 23:28N 52°27' E 004°03'0 0.0
2018-Feb-09 22:58N 52°27' E 004°03'0 0.0
2018-Feb-09 22:43N 52°27' E 004°03'0 0.0
2018-Feb-09 19:01N 52°27' E 004°03'  
Track history (hours):
 
Tides and Currents Weather Stations Pressure Air Temp Water Temp Dewpoint Dewpoint Depression Visibility Wind Speed Wind Dir Waves Ship Positions

Colorado Star

Last reported at 2018-Feb-19 11:30 UTC. Time now 2018-Feb-19 11:41 UTC.
Position N 54°16' E 009°38'.

Length 128 m; draft 6.4 m.

Type: Ship. MMSI: 248127000.

Date/timePositionNaut miles runAvg speedWind from/ knotsBaromVisibWave heightAir tempDewpointWater temp
2018-Feb-19 11:30N 54°16' E 009°38'0 0.5
2018-Feb-19 11:00N 54°16' E 009°38'2 3.4
2018-Feb-19 10:30N 54°14' E 009°37'4 7.8
2018-Feb-19 10:00N 54°12' E 009°32'4 8.8
2018-Feb-19 09:30N 54°10' E 009°25'3 6.7
2018-Feb-19 09:00N 54°08' E 009°20'4 8.5
2018-Feb-19 08:30N 54°04' E 009°19'1 2.7
2018-Feb-19 08:00N 54°03' E 009°18'2 3.0
2018-Feb-19 07:30N 54°01' E 009°18'4 8.1
2018-Feb-19 07:00N 53°58' E 009°15'1 2.2
2018-Feb-19 06:30N 53°57' E 009°14'0 0.3
2018-Feb-19 06:00N 53°57' E 009°14'3 6.2
2018-Feb-19 05:30N 53°54' E 009°10'1 2.2
2018-Feb-19 05:00N 53°54' E 009°09'0 0.8
2018-Feb-19 04:30N 53°53' E 009°08'2 3.6
2018-Feb-19 04:00N 53°53' E 009°05'0 0.4
2018-Feb-19 03:30N 53°53' E 009°05'4 8.2
2018-Feb-19 03:00N 53°51' E 008°59'713.5
2018-Feb-19 02:30N 53°50' E 008°47'613.1
2018-Feb-19 02:00N 53°55' E 008°40'712.5
2018-Feb-19 01:28N 53°58' E 008°30'612.8
2018-Feb-19 01:00N 53°59' E 008°20'611.3
2018-Feb-19 00:30N 53°60' E 008°10'713.1
2018-Feb-19 00:00N 53°58' E 007°59'610.6
2018-Feb-18 23:28N 53°57' E 007°50'8514.0
2018-Feb-18 17:23N 53°35' E 005°31'512.4
2018-Feb-18 17:00N 53°33' E 005°24'612.2
2018-Feb-18 16:31N 53°31' E 005°14'611.9
2018-Feb-18 16:01N 53°29' E 005°05'612.1
2018-Feb-18 15:30N 53°27' E 004°56'612.0
2018-Feb-18 15:00N 53°24' E 004°46'1211.7
2018-Feb-18 14:01N 53°14' E 004°36'012.5
2018-Feb-18 14:00N 53°14' E 004°36'612.4
2018-Feb-18 13:30N 53°09' E 004°30'612.3
2018-Feb-18 13:01N 53°04' E 004°26'612.0
2018-Feb-18 12:30N 52°58' E 004°21'612.5
2018-Feb-18 12:00N 52°53' E 004°17'611.8
2018-Feb-18 11:31N 52°47' E 004°14'612.1
2018-Feb-18 11:01N 52°41' E 004°16'612.1
2018-Feb-18 10:31N 52°36' E 004°21'612.4
2018-Feb-18 10:00N 52°31' E 004°27'510.5
2018-Feb-18 09:31N 52°28' E 004°34'1 2.7
2018-Feb-18 09:01N 52°28' E 004°36'1 1.5
2018-Feb-18 08:31N 52°28' E 004°38'2 3.3
2018-Feb-18 08:00N 52°27' E 004°40'3 6.7
2018-Feb-18 07:31N 52°26' E 004°45'2 3.9
2018-Feb-18 07:00N 52°24' E 004°47'0 0.0
2018-Feb-18 06:21N 52°24' E 004°47'0 0.0
2018-Feb-18 05:57N 52°24' E 004°47'0 0.0
2018-Feb-18 05:27N 52°24' E 004°47'0 0.0
2018-Feb-18 05:00N 52°24' E 004°47'0 0.0
2018-Feb-18 04:30N 52°24' E 004°47'0 0.0
2018-Feb-18 03:57N 52°24' E 004°47'0 0.0
2018-Feb-18 03:27N 52°24' E 004°47'0 0.0
2018-Feb-18 02:57N 52°24' E 004°47'0 0.0
2018-Feb-18 02:24N 52°24' E 004°47'0 0.0
2018-Feb-18 02:00N 52°24' E 004°47'0 0.0
2018-Feb-18 01:27N 52°24' E 004°47'0 0.0
2018-Feb-18 00:57N 52°24' E 004°47'0 0.0
2018-Feb-18 00:30N 52°24' E 004°47'0 0.0
2018-Feb-17 23:54N 52°24' E 004°47'0 0.0
2018-Feb-17 23:30N 52°24' E 004°47'0 0.0
2018-Feb-17 22:42N 52°24' E 004°47'0 0.0
2018-Feb-17 22:15N 52°24' E 004°47'0 0.0
2018-Feb-17 22:00N 52°24' E 004°47'0 0.0
2018-Feb-17 21:27N 52°24' E 004°47'0 0.0
2018-Feb-17 20:54N 52°24' E 004°47'0 0.0
2018-Feb-17 20:30N 52°24' E 004°47'0 0.0
2018-Feb-17 19:54N 52°24' E 004°47'0 0.0
2018-Feb-17 19:30N 52°24' E 004°47'0 0.0
2018-Feb-17 18:45N 52°24' E 004°47'0 0.0
2018-Feb-17 18:15N 52°24' E 004°47'0 0.0
2018-Feb-17 17:54N 52°24' E 004°47'0 0.0
2018-Feb-17 17:27N 52°24' E 004°47'0 0.0
2018-Feb-17 17:00N 52°24' E 004°47'0 0.0
2018-Feb-17 16:27N 52°24' E 004°47'0 0.0
2018-Feb-17 16:00N 52°24' E 004°47'0 0.0
2018-Feb-17 15:27N 52°24' E 004°47'0 0.0
2018-Feb-17 15:00N 52°24' E 004°47'0 0.0
2018-Feb-17 14:30N 52°24' E 004°47'0 0.0
2018-Feb-17 13:57N 52°24' E 004°47'0 0.0
2018-Feb-17 13:30N 52°24' E 004°47'0 0.0
2018-Feb-17 12:57N 52°24' E 004°47'0 0.0
2018-Feb-17 12:30N 52°24' E 004°47'0 0.0
2018-Feb-17 11:57N 52°24' E 004°47'0 0.0
2018-Feb-17 11:30N 52°24' E 004°47'0 0.1
2018-Feb-17 11:00N 52°24' E 004°47'0 0.1
2018-Feb-17 10:30N 52°24' E 004°47'0 0.0
2018-Feb-17 10:00N 52°24' E 004°47'0 0.0
2018-Feb-17 09:30N 52°24' E 004°47'0 0.0
2018-Feb-17 08:57N 52°24' E 004°47'0 0.0
2018-Feb-17 08:30N 52°24' E 004°47'0 0.0
2018-Feb-17 08:00N 52°24' E 004°47'0 0.0
2018-Feb-17 07:30N 52°24' E 004°47'0 0.0
2018-Feb-17 06:57N 52°24' E 004°47'0 0.0
2018-Feb-17 06:27N 52°24' E 004°47'0 0.0
2018-Feb-17 06:00N 52°24' E 004°47'1 2.5
2018-Feb-17 05:30N 52°25' E 004°46'4 7.8
2018-Feb-17 05:00N 52°27' E 004°41'3 5.4
2018-Feb-17 04:31N 52°28' E 004°36'0 0.3
2018-Feb-17 04:01N 52°28' E 004°36'3 5.9
2018-Feb-17 03:30N 52°28' E 004°31'5 9.6
2018-Feb-17 03:00N 52°28' E 004°23'4 8.2
2018-Feb-17 02:30N 52°28' E 004°17'5 9.4
2018-Feb-17 02:00N 52°27' E 004°09'2 4.6
2018-Feb-17 01:28N 52°26' E 004°05'0 0.1
2018-Feb-17 00:58N 52°26' E 004°05'0 0.0
2018-Feb-17 00:28N 52°26' E 004°05'0 0.0
2018-Feb-16 23:58N 52°26' E 004°05'0 0.0
2018-Feb-16 23:28N 52°26' E 004°05'0 0.0
2018-Feb-16 22:58N 52°26' E 004°05'0 0.0
2018-Feb-16 22:28N 52°26' E 004°05'0 0.0
2018-Feb-16 21:58N 52°26' E 004°05'0 0.0
2018-Feb-16 21:28N 52°26' E 004°05'0 0.0
2018-Feb-16 20:58N 52°26' E 004°05'0 0.0
2018-Feb-16 20:25N 52°26' E 004°05'0 0.1
2018-Feb-16 19:58N 52°26' E 004°06'0 0.1
2018-Feb-16 19:28N 52°26' E 004°06'0 0.1
2018-Feb-16 18:55N 52°26' E 004°06'0 0.1
2018-Feb-16 18:25N 52°26' E 004°06'0 0.0
2018-Feb-16 17:58N 52°26' E 004°06'0 0.0
2018-Feb-16 17:25N 52°26' E 004°06'0 0.0
2018-Feb-16 16:58N 52°26' E 004°06'0 0.0
2018-Feb-16 16:25N 52°26' E 004°06'0 0.0
2018-Feb-16 15:55N 52°26' E 004°06'0 0.0
2018-Feb-16 15:28N 52°26' E 004°06'0 0.1
2018-Feb-16 14:58N 52°26' E 004°06'0 0.2
2018-Feb-16 14:28N 52°26' E 004°06'0 0.1
2018-Feb-16 13:55N 52°26' E 004°06'0 0.1
2018-Feb-16 13:25N 52°26' E 004°06'0 0.1
2018-Feb-16 12:58N 52°26' E 004°06'0 0.1
2018-Feb-16 12:28N 52°26' E 004°06'0 0.1
2018-Feb-16 11:55N 52°26' E 004°06'0 0.0
2018-Feb-16 11:28N 52°26' E 004°05'0 0.0
2018-Feb-16 10:58N 52°26' E 004°05'0 0.0
2018-Feb-16 10:28N 52°26' E 004°05'0 0.0
2018-Feb-16 09:58N 52°26' E 004°05'0 0.0
2018-Feb-16 09:28N 52°26' E 004°05'0 0.0
2018-Feb-16 08:58N 52°26' E 004°05'0 0.1
2018-Feb-16 08:28N 52°26' E 004°05'0 0.1
2018-Feb-16 07:58N 52°26' E 004°06'0 0.1
2018-Feb-16 07:28N 52°26' E 004°06'0 0.1
2018-Feb-16 06:58N 52°26' E 004°06'0 0.0
2018-Feb-16 06:25N 52°26' E 004°06'0 0.1
2018-Feb-16 05:58N 52°26' E 004°06'0 0.1
2018-Feb-16 05:28N 52°26' E 004°06'0 0.0
2018-Feb-16 04:55N 52°26' E 004°06'0 0.0
2018-Feb-16 04:28N 52°26' E 004°06'0 0.0
2018-Feb-16 03:49N 52°26' E 004°06'0 0.0
2018-Feb-16 03:28N 52°26' E 004°06'0 0.0
2018-Feb-16 02:55N 52°26' E 004°06'0 0.0
2018-Feb-16 02:25N 52°26' E 004°06'0 0.1
2018-Feb-16 01:58N 52°26' E 004°06'0 0.0
2018-Feb-16 01:28N 52°26' E 004°06'0 0.0
2018-Feb-16 00:58N 52°26' E 004°06'0 0.0
2018-Feb-16 00:25N 52°26' E 004°06'0 0.1
2018-Feb-15 23:58N 52°26' E 004°06'0 0.1
2018-Feb-15 23:25N 52°26' E 004°06'0 0.0
2018-Feb-15 22:58N 52°26' E 004°06'0 0.1
2018-Feb-15 22:28N 52°26' E 004°05'0 0.1
2018-Feb-15 21:58N 52°26' E 004°05'0 0.0
2018-Feb-15 21:25N 52°26' E 004°05'0 0.0
2018-Feb-15 20:58N 52°26' E 004°05'0 0.0
2018-Feb-15 20:28N 52°26' E 004°05'0 0.1
2018-Feb-15 19:58N 52°26' E 004°05'0 0.2
2018-Feb-15 19:28N 52°26' E 004°06'0 0.1
2018-Feb-15 18:58N 52°26' E 004°06'0 0.0
2018-Feb-15 18:28N 52°26' E 004°06'0 0.0
2018-Feb-15 17:58N 52°26' E 004°06'0 0.0
2018-Feb-15 17:25N 52°26' E 004°06'0 0.0
2018-Feb-15 16:58N 52°26' E 004°06'0 0.0
2018-Feb-15 16:28N 52°26' E 004°06'0 0.0
2018-Feb-15 15:58N 52°26' E 004°06'0 0.0
2018-Feb-15 15:28N 52°26' E 004°06'0 0.0
2018-Feb-15 14:58N 52°26' E 004°06'0 0.0
2018-Feb-15 14:28N 52°26' E 004°06'0 0.0
2018-Feb-15 13:55N 52°26' E 004°06'0 0.0
2018-Feb-15 13:25N 52°26' E 004°06'0 0.0
2018-Feb-15 12:10N 52°26' E 004°06'0 0.0
2018-Feb-15 11:58N 52°26' E 004°06'0 0.0
2018-Feb-15 11:28N 52°26' E 004°06'0 0.0
2018-Feb-15 10:55N 52°26' E 004°06'0 0.0
2018-Feb-15 10:28N 52°26' E 004°06'0 0.2
2018-Feb-15 09:58N 52°26' E 004°05'0 0.2
2018-Feb-15 09:30N 52°26' E 004°05'3 5.6
2018-Feb-15 09:00N 52°24' E 004°03'2 4.9
2018-Feb-15 08:30N 52°22' E 004°00'0 0.1
2018-Feb-15 08:00N 52°22' E 004°00'0 0.3
2018-Feb-15 07:30N 52°22' E 003°60'0 0.6
2018-Feb-15 07:00N 52°22' E 003°60'0 0.8
2018-Feb-15 06:30N 52°22' E 003°59'1 1.1
2018-Feb-15 06:00N 52°21' E 003°59'1 1.5
2018-Feb-15 05:30N 52°20' E 003°59'1 1.8
2018-Feb-15 05:00N 52°20' E 003°58'1 2.0
2018-Feb-15 04:31N 52°19' E 003°58'1 2.1
2018-Feb-15 04:00N 52°18' E 003°58'1 2.5
2018-Feb-15 03:30N 52°19' E 003°58'2 3.4
2018-Feb-15 03:00N 52°20' E 003°58'1 3.0
2018-Feb-15 02:31N 52°22' E 003°58'1 2.6
2018-Feb-15 02:00N 52°23' E 003°58'0 0.7
2018-Feb-15 01:30N 52°23' E 003°57'1 2.6
2018-Feb-15 01:00N 52°22' E 003°57'1 2.4
2018-Feb-15 00:30N 52°21' E 003°56'1 2.0
2018-Feb-15 00:01N 52°20' E 003°56'1 1.6
2018-Feb-14 23:31N 52°19' E 003°56'1 1.2
2018-Feb-14 23:01N 52°18' E 003°57'1 1.1
2018-Feb-14 22:30N 52°18' E 003°57'1 1.1
2018-Feb-14 22:00N 52°18' E 003°58'1 1.2
2018-Feb-14 21:30N 52°17' E 003°58'2 3.3
2018-Feb-14 21:00N 52°18' E 003°56'2 3.8
2018-Feb-14 20:30N 52°19' E 003°53'1 1.1
2018-Feb-14 20:00N 52°19' E 003°54'1 1.0
2018-Feb-14 19:30N 52°18' E 003°55'1 1.1
2018-Feb-14 19:00N 52°18' E 003°55'2 4.5
2018-Feb-14 18:30N 52°20' E 003°57'3 5.6
2018-Feb-14 18:00N 52°23' E 003°59'2 5.0
2018-Feb-14 17:30N 52°25' E 004°01'1 1.5
2018-Feb-14 17:00N 52°24' E 004°01'1 1.9
2018-Feb-14 16:30N 52°23' E 004°00'1 2.1
2018-Feb-14 15:58N 52°22' E 003°59'1 2.3
2018-Feb-14 15:28N 52°21' E 003°58'1 2.5
2018-Feb-14 15:00N 52°20' E 003°58'1 2.5
2018-Feb-14 14:30N 52°19' E 003°57'1 2.1
2018-Feb-14 14:00N 52°18' E 003°56'2 3.8
2018-Feb-14 13:30N 52°20' E 003°57'2 3.9
2018-Feb-14 13:00N 52°21' E 003°59'2 4.2
2018-Feb-14 12:30N 52°23' E 003°60'2 3.9
2018-Feb-14 12:00N 52°25' E 004°00'0 0.2
2018-Feb-14 11:21N 52°25' E 004°00'0 0.1
2018-Feb-14 11:00N 52°25' E 004°00'0 0.1
2018-Feb-14 10:30N 52°25' E 004°00'0 0.1
2018-Feb-14 09:57N 52°25' E 003°60'0 0.1
2018-Feb-14 09:30N 52°25' E 003°60'0 0.0
2018-Feb-14 09:00N 52°25' E 003°60'0 0.0
2018-Feb-14 08:30N 52°25' E 003°60'0 0.0
2018-Feb-14 07:51N 52°25' E 003°60'0 0.2
2018-Feb-14 07:30N 52°25' E 004°00'0 0.1
2018-Feb-14 07:00N 52°25' E 004°00'0 0.0
2018-Feb-14 06:30N 52°25' E 004°00'0 0.0
2018-Feb-14 06:00N 52°25' E 004°00'0 0.0
2018-Feb-14 05:30N 52°25' E 004°00'0 0.0
2018-Feb-14 05:00N 52°25' E 004°00'0 0.0
2018-Feb-14 04:30N 52°25' E 004°00'0 0.0
2018-Feb-14 04:00N 52°25' E 004°00'0 0.0
2018-Feb-14 03:30N 52°25' E 004°00'0 0.0
2018-Feb-14 03:00N 52°25' E 004°00'0 0.0
2018-Feb-14 02:30N 52°25' E 004°00'0 0.0
2018-Feb-14 01:57N 52°25' E 004°00'0 0.0
2018-Feb-14 01:27N 52°25' E 004°00'0 0.0
2018-Feb-14 00:48N 52°25' E 004°00'0 0.0
2018-Feb-14 00:30N 52°25' E 004°00'0 0.0
2018-Feb-14 00:00N 52°25' E 004°00'0 0.0
2018-Feb-13 23:30N 52°25' E 004°00'0 0.0
2018-Feb-13 23:00N 52°25' E 004°00'0 0.1
2018-Feb-13 22:30N 52°25' E 003°60'0 0.1
2018-Feb-13 21:57N 52°25' E 003°60'0 0.1
2018-Feb-13 21:30N 52°25' E 003°60'0 0.0
2018-Feb-13 21:00N 52°25' E 003°60'0 0.0
2018-Feb-13 20:30N 52°25' E 004°00'0 0.1
2018-Feb-13 20:00N 52°25' E 003°60'0 0.1
2018-Feb-13 19:30N 52°25' E 003°60'0 0.2
2018-Feb-13 19:00N 52°25' E 004°00'0 0.1
2018-Feb-13 18:24N 52°25' E 004°00'0 0.1
2018-Feb-13 18:00N 52°25' E 004°00'0 0.0
2018-Feb-13 17:30N 52°25' E 004°00'0 0.0
2018-Feb-13 17:00N 52°25' E 004°00'0 0.0
2018-Feb-13 16:30N 52°25' E 004°00'0 0.0
2018-Feb-13 16:00N 52°25' E 004°00'0 0.0
2018-Feb-13 15:30N 52°25' E 004°00'0 0.0
2018-Feb-13 15:00N 52°25' E 004°00'0 0.0
2018-Feb-13 14:30N 52°25' E 004°00'0 0.0
2018-Feb-13 14:00N 52°25' E 004°00'0 0.0
2018-Feb-13 13:30N 52°25' E 004°00'0 0.0
2018-Feb-13 13:00N 52°25' E 004°00'0 0.0
2018-Feb-13 12:30N 52°25' E 004°00'0 0.0
2018-Feb-13 12:00N 52°25' E 004°00'0 0.0
2018-Feb-13 11:30N 52°25' E 004°00'0 0.0
2018-Feb-13 11:00N 52°25' E 004°00'0 0.0
2018-Feb-13 10:30N 52°25' E 004°00'0 0.0
2018-Feb-13 09:57N 52°25' E 004°00'0 0.0
2018-Feb-13 09:30N 52°25' E 004°00'0 0.1
2018-Feb-13 09:00N 52°25' E 004°00'0 0.1
2018-Feb-13 08:30N 52°25' E 004°00'0 0.0
2018-Feb-13 08:00N 52°25' E 004°00'0 0.1
2018-Feb-13 07:30N 52°25' E 004°00'0 0.0
2018-Feb-13 07:00N 52°25' E 004°00'0 0.0
2018-Feb-13 06:27N 52°25' E 004°00'0 0.0
2018-Feb-13 06:00N 52°25' E 004°00'0 0.0
2018-Feb-13 05:30N 52°25' E 004°00'0 0.0
2018-Feb-13 05:00N 52°25' E 004°00'0 0.0
2018-Feb-13 04:27N 52°25' E 004°00'0 0.0
2018-Feb-13 04:00N 52°25' E 004°00'0 0.0
2018-Feb-13 03:30N 52°25' E 004°00'0 0.0
2018-Feb-13 03:00N 52°25' E 004°00'0 0.0
2018-Feb-13 02:30N 52°25' E 004°00'0 0.0
2018-Feb-13 02:00N 52°25' E 004°00'0 0.0
2018-Feb-13 01:30N 52°25' E 004°00'0 0.0
2018-Feb-13 00:51N 52°25' E 004°00'0 0.1
2018-Feb-13 00:30N 52°25' E 004°00'0 0.1
2018-Feb-13 00:00N 52°25' E 004°00'0 0.1
2018-Feb-12 23:27N 52°25' E 004°00'0 0.0
2018-Feb-12 22:54N 52°25' E 004°00'0 0.1
2018-Feb-12 22:27N 52°25' E 004°00'0 0.1
2018-Feb-12 21:51N 52°25' E 004°00'0 0.1
2018-Feb-12 21:30N 52°25' E 004°00'0 0.1
2018-Feb-12 21:00N 52°25' E 004°00'0 0.1
2018-Feb-12 20:27N 52°25' E 004°00'0 0.1
2018-Feb-12 20:00N 52°25' E 004°00'0 0.0
2018-Feb-12 19:30N 52°25' E 004°00'0 0.0
2018-Feb-12 19:00N 52°25' E 004°00'0 0.1
2018-Feb-12 18:27N 52°25' E 004°00'0 0.1
2018-Feb-12 18:00N 52°25' E 004°00'0 0.0
2018-Feb-12 16:12N 52°25' E 004°00'0 0.0
2018-Feb-12 15:15N 52°25' E 004°00'0 0.3
2018-Feb-12 15:00N 52°25' E 004°00'0 0.0
2018-Feb-12 14:30N 52°25' E 004°00'0 0.0
2018-Feb-12 13:54N 52°25' E 004°00'0 0.0
2018-Feb-12 13:30N 52°25' E 004°00'0 0.0
2018-Feb-12 13:00N 52°25' E 004°00'0 0.0
2018-Feb-12 12:27N 52°25' E 004°00'0 0.1
2018-Feb-12 11:54N 52°25' E 004°00'0 0.1
2018-Feb-12 10:33N 52°25' E 004°00'0 0.2
2018-Feb-12 10:30N 52°25' E 004°00'0 0.0
2018-Feb-12 10:00N 52°25' E 004°00'0 0.0
2018-Feb-12 09:24N 52°25' E 004°00'0 0.0
2018-Feb-12 09:00N 52°25' E 004°00'0 0.6
2018-Feb-12 08:30N 52°25' E 004°00'2 3.7
2018-Feb-12 08:00N 52°23' E 004°00'2 3.9
2018-Feb-12 07:30N 52°21' E 003°59'2 4.2
2018-Feb-12 07:00N 52°19' E 003°59'3 5.1
2018-Feb-12 06:30N 52°17' E 003°60'0 0.9
2018-Feb-12 06:00N 52°17' E 004°01'1 1.6
2018-Feb-12 05:30N 52°17' E 004°00'1 1.6
2018-Feb-12 05:00N 52°18' E 003°60'1 1.4
2018-Feb-12 04:30N 52°19' E 003°59'1 1.3
2018-Feb-12 04:00N 52°19' E 003°58'1 1.2
2018-Feb-12 03:30N 52°19' E 003°58'1 1.1
2018-Feb-12 03:00N 52°20' E 003°57'2 3.6
2018-Feb-12 02:30N 52°20' E 003°60'2 4.0
2018-Feb-12 02:00N 52°20' E 004°03'2 4.0
2018-Feb-12 01:30N 52°20' E 004°06'2 3.7
2018-Feb-12 01:00N 52°20' E 004°09'0 0.9
2018-Feb-12 00:30N 52°20' E 004°09'1 1.7
2018-Feb-12 00:00N 52°20' E 004°08'1 1.7
2018-Feb-11 23:30N 52°20' E 004°06'1 1.6
2018-Feb-11 23:01N 52°19' E 004°05'1 1.5
2018-Feb-11 22:30N 52°19' E 004°04'1 1.4
2018-Feb-11 22:00N 52°20' E 004°03'1 1.4
2018-Feb-11 21:30N 52°20' E 004°02'1 1.5
2018-Feb-11 21:00N 52°20' E 004°01'1 1.4
2018-Feb-11 20:30N 52°21' E 003°60'1 1.4
2018-Feb-11 20:00N 52°21' E 003°59'1 1.4
2018-Feb-11 19:30N 52°22' E 003°58'1 1.4
2018-Feb-11 19:00N 52°22' E 003°58'1 1.4
2018-Feb-11 18:30N 52°23' E 003°57'1 1.4
2018-Feb-11 18:00N 52°23' E 003°58'2 4.8
2018-Feb-11 17:30N 52°21' E 004°00'4 8.2
2018-Feb-11 17:00N 52°18' E 004°05'0 0.8
2018-Feb-11 16:30N 52°19' E 004°05'1 1.3
2018-Feb-11 16:00N 52°19' E 004°04'1 1.2
2018-Feb-11 15:30N 52°20' E 004°03'1 1.3
2018-Feb-11 15:00N 52°20' E 004°02'1 1.4
2018-Feb-11 14:30N 52°20' E 004°01'1 1.6
2018-Feb-11 14:00N 52°20' E 003°60'1 1.7
2018-Feb-11 13:30N 52°19' E 003°58'0 0.5
2018-Feb-11 13:00N 52°19' E 003°58'2 2.6
2018-Feb-11 12:24N 52°20' E 004°00'1 2.4
2018-Feb-11 12:00N 52°20' E 004°02'1 2.0
2018-Feb-11 11:30N 52°20' E 004°03'1 2.0
2018-Feb-11 11:00N 52°21' E 004°05'1 2.1
2018-Feb-11 10:30N 52°21' E 004°06'1 1.3
2018-Feb-11 10:00N 52°22' E 004°07'1 2.1
2018-Feb-11 09:30N 52°22' E 004°05'1 1.9
2018-Feb-11 09:00N 52°21' E 004°04'1 1.8
2018-Feb-11 08:30N 52°21' E 004°02'1 1.6
2018-Feb-11 08:00N 52°21' E 004°01'1 1.5
2018-Feb-11 07:30N 52°21' E 003°60'1 1.3
2018-Feb-11 07:00N 52°21' E 003°59'0 0.8
2018-Feb-11 06:30N 52°21' E 003°59'3 5.4
2018-Feb-11 06:00N 52°22' E 004°03'0 1.0
2018-Feb-11 05:30N 52°23' E 004°03'0 0.9
2018-Feb-11 05:00N 52°23' E 004°03'1 1.1
2018-Feb-11 04:30N 52°22' E 004°02'1 1.3
2018-Feb-11 04:01N 52°22' E 004°01'1 1.5
2018-Feb-11 03:30N 52°21' E 004°00'1 1.6
2018-Feb-11 03:00N 52°21' E 003°60'0 0.7
2018-Feb-11 02:30N 52°21' E 004°00'2 3.2
2018-Feb-11 02:00N 52°22' E 004°02'1 2.0
2018-Feb-11 01:30N 52°23' E 004°02'1 2.4
2018-Feb-11 01:00N 52°24' E 004°03'1 2.2
2018-Feb-11 00:30N 52°25' E 004°04'1 1.6
2018-Feb-11 00:00N 52°25' E 004°03'1 2.6
2018-Feb-10 23:30N 52°23' E 004°02'1 2.6
2018-Feb-10 23:00N 52°22' E 004°01'1 2.5
2018-Feb-10 22:30N 52°21' E 004°00'1 2.5
2018-Feb-10 22:00N 52°20' E 003°59'1 2.2
2018-Feb-10 21:30N 52°19' E 003°59'2 3.0
2018-Feb-10 21:00N 52°20' E 003°59'2 3.5
2018-Feb-10 20:30N 52°22' E 003°60'2 3.6
2018-Feb-10 20:00N 52°24' E 003°60'0 1.0
2018-Feb-10 19:31N 52°24' E 003°59'1 1.1
2018-Feb-10 19:00N 52°23' E 003°59'0 0.9
2018-Feb-10 18:30N 52°23' E 003°59'0 0.9
2018-Feb-10 18:00N 52°22' E 003°58'0 0.8
2018-Feb-10 17:30N 52°22' E 003°58'0 0.7
2018-Feb-10 17:00N 52°22' E 003°58'0 0.7
2018-Feb-10 16:30N 52°21' E 003°58'0 0.7
2018-Feb-10 16:00N 52°21' E 003°58'0 0.7
2018-Feb-10 15:30N 52°21' E 003°57'0 0.8
2018-Feb-10 15:00N 52°20' E 003°57'0 0.9
2018-Feb-10 14:30N 52°20' E 003°57'1 1.9
2018-Feb-10 14:00N 52°21' E 003°58'3 5.8
2018-Feb-10 13:30N 52°23' E 003°60'3 5.7
2018-Feb-10 13:00N 52°26' E 004°02'1 2.1
2018-Feb-10 12:28N 52°27' E 004°03'0 0.1
2018-Feb-10 11:58N 52°27' E 004°03'0 0.0
2018-Feb-10 11:25N 52°27' E 004°03'0 0.0
2018-Feb-10 10:58N 52°27' E 004°03'0 0.0
2018-Feb-10 10:28N 52°27' E 004°03'0 0.0
2018-Feb-10 09:58N 52°27' E 004°03'0 0.1
2018-Feb-10 09:28N 52°27' E 004°03'0 0.1
2018-Feb-10 08:49N 52°27' E 004°03'0 0.1
2018-Feb-10 08:25N 52°26' E 004°03'0 0.0
2018-Feb-10 07:55N 52°26' E 004°03'0 0.0
2018-Feb-10 07:28N 52°26' E 004°03'0 0.1
2018-Feb-10 06:58N 52°26' E 004°03'0 0.0
2018-Feb-10 06:28N 52°26' E 004°03'0 0.0
2018-Feb-10 05:55N 52°26' E 004°03'0 0.0
2018-Feb-10 05:28N 52°26' E 004°03'0 0.1
2018-Feb-10 04:58N 52°26' E 004°03'0 0.0
2018-Feb-10 04:28N 52°26' E 004°03'0 0.0
2018-Feb-10 03:58N 52°26' E 004°03'0 0.1
2018-Feb-10 03:28N 52°27' E 004°03'0 0.1
2018-Feb-10 02:40N 52°27' E 004°03'0 0.0
2018-Feb-10 02:25N 52°27' E 004°03'0 0.1
2018-Feb-10 01:58N 52°27' E 004°03'0 0.1
2018-Feb-10 01:25N 52°27' E 004°03'0 0.0
2018-Feb-10 00:52N 52°27' E 004°03'0 0.0
2018-Feb-10 00:25N 52°27' E 004°03'0 0.0
2018-Feb-09 23:55N 52°27' E 004°03'0 0.0
2018-Feb-09 23:28N 52°27' E 004°03'0 0.0
2018-Feb-09 22:58N 52°27' E 004°03'0 0.0
2018-Feb-09 22:43N 52°27' E 004°03'0 0.0
2018-Feb-09 19:01N 52°27' E 004°03'  

Dump ship's entire track history